createdAt,value
2024-01-06T00:07:55.274Z,83.40
2024-01-06T00:17:59.576Z,83.74
2024-01-06T00:28:02.461Z,83.30
2024-01-06T00:38:06.624Z,84.16
2024-01-06T00:48:09.680Z,84.14
2024-01-06T00:58:14.203Z,85.63
2024-01-06T01:08:17.115Z,85.30
2024-01-06T01:18:21.522Z,85.09
2024-01-06T01:28:24.506Z,85.53
2024-01-06T01:38:28.657Z,86.58
2024-01-06T01:48:32.218Z,86.07
2024-01-06T01:58:36.630Z,87.14
2024-01-06T02:08:39.549Z,87.89
2024-01-06T02:18:43.946Z,88.31
2024-01-06T02:28:49.259Z,88.54
2024-01-06T02:38:52.109Z,88.93
2024-01-06T02:48:56.430Z,88.55
2024-01-06T02:58:59.217Z,89.92
2024-01-06T03:09:03.418Z,90.31
2024-01-06T03:19:06.310Z,91.30
2024-01-06T03:29:10.580Z,92.32
2024-01-06T03:39:14.454Z,92.95
2024-01-06T03:49:19.740Z,93.04
2024-01-06T03:59:22.812Z,94.02
2024-01-06T04:09:26.961Z,97.13
2024-01-06T04:19:30.116Z,98.58
2024-01-06T04:29:34.342Z,99.49
2024-01-06T04:39:38.005Z,100.00
2024-01-06T04:49:42.527Z,100.00
2024-01-06T04:59:45.761Z,100.00
2024-01-06T05:09:49.978Z,100.00
2024-01-06T05:19:52.950Z,100.00
2024-01-06T05:29:57.209Z,100.00
2024-01-06T05:40:02.469Z,100.00
2024-01-06T05:50:10.387Z,100.00
2024-01-06T06:00:14.850Z,100.00
2024-01-06T06:10:19.917Z,100.00
2024-01-06T06:20:22.762Z,100.00
2024-01-06T06:30:27.097Z,100.00
2024-01-06T06:40:30.003Z,100.00
2024-01-06T06:50:34.254Z,100.00
2024-01-06T07:00:37.342Z,100.00
2024-01-06T07:10:41.564Z,100.00
2024-01-06T07:20:44.403Z,100.00
2024-01-06T07:30:48.621Z,100.00
2024-01-06T07:40:51.428Z,100.00
2024-01-06T07:50:55.709Z,100.00
2024-01-06T08:00:58.626Z,100.00
2024-01-06T08:11:03.093Z,100.00
2024-01-06T08:21:06.387Z,100.00
2024-01-06T08:31:10.622Z,100.00
2024-01-06T08:41:13.468Z,100.00
2024-01-06T08:51:17.869Z,100.00
2024-01-06T09:01:21.030Z,100.00
2024-01-06T09:11:25.257Z,100.00
2024-01-06T09:21:28.231Z,100.00
2024-01-06T09:31:33.112Z,100.00
2024-01-06T09:41:36.466Z,100.00
2024-01-06T09:51:41.653Z,100.00
2024-01-06T10:01:44.522Z,100.00
2024-01-06T10:11:48.683Z,100.00
2024-01-06T10:21:51.526Z,100.00
2024-01-06T10:31:56.519Z,100.00
2024-01-06T10:41:59.444Z,100.00
2024-01-06T10:52:03.821Z,100.00
2024-01-06T11:02:08.084Z,100.00
2024-01-06T11:12:12.338Z,100.00
2024-01-06T11:22:29.516Z,100.00
2024-01-06T11:32:37.267Z,100.00
2024-01-06T11:42:40.296Z,100.00
2024-01-06T11:52:44.550Z,100.00
2024-01-06T12:02:47.419Z,100.00
2024-01-06T12:13:00.356Z,100.00
2024-01-06T12:23:06.934Z,100.00
2024-01-06T12:33:12.109Z,100.00
2024-01-06T12:43:15.364Z,100.00
2024-01-06T12:53:19.484Z,100.00
2024-01-06T13:03:23.931Z,100.00
2024-01-06T13:13:28.475Z,100.00
2024-01-06T13:23:31.347Z,98.71
2024-01-06T13:33:35.712Z,96.55
2024-01-06T13:43:38.546Z,96.70
2024-01-06T13:53:42.681Z,95.98
2024-01-06T14:03:45.571Z,95.31
2024-01-06T14:13:52.730Z,97.28
2024-01-06T14:23:55.513Z,97.80
2024-01-06T14:34:01.072Z,98.49
2024-01-06T14:44:04.386Z,98.92
2024-01-06T14:54:12.477Z,98.98
2024-01-06T15:04:20.333Z,99.02
2024-01-06T15:14:25.689Z,99.44
2024-01-06T15:24:28.492Z,99.09
2024-01-06T15:34:32.944Z,99.38
2024-01-06T15:44:35.754Z,100.00
2024-01-06T15:54:40.074Z,100.00
2024-01-06T16:04:43.498Z,100.00
2024-01-06T16:14:47.952Z,100.00
2024-01-06T16:24:50.729Z,100.00
2024-01-06T16:34:55.182Z,100.00
2024-01-06T16:44:58.080Z,100.00
2024-01-06T16:55:02.570Z,100.00
2024-01-06T17:05:08.130Z,100.00
2024-01-06T17:15:13.050Z,100.00
2024-01-06T17:25:16.698Z,100.00
2024-01-06T17:35:20.682Z,100.00
2024-01-06T17:45:23.599Z,100.00
2024-01-06T17:55:29.226Z,100.00
2024-01-06T18:05:32.598Z,100.00
2024-01-06T18:15:36.900Z,100.00
2024-01-06T18:25:39.991Z,100.00
2024-01-06T18:35:44.315Z,100.00
2024-01-06T18:45:47.287Z,100.00
2024-01-06T18:55:51.851Z,100.00
2024-01-06T19:05:54.719Z,100.00
2024-01-06T19:15:59.040Z,100.00
2024-01-06T19:26:03.792Z,100.00
2024-01-06T19:36:08.885Z,100.00
2024-01-06T19:46:13.176Z,100.00
2024-01-06T19:56:17.424Z,100.00
2024-01-06T20:06:20.469Z,100.00
2024-01-06T20:16:24.739Z,100.00
2024-01-06T20:26:29.847Z,100.00
2024-01-06T20:36:34.321Z,100.00
2024-01-06T20:46:37.631Z,100.00
2024-01-06T20:56:42.437Z,100.00
2024-01-06T21:06:45.305Z,100.00
2024-01-06T21:16:51.297Z,100.00
2024-01-06T21:26:54.579Z,100.00
2024-01-06T21:36:59.708Z,100.00
2024-01-06T21:47:04.212Z,100.00
2024-01-06T21:57:09.410Z,100.00
2024-01-06T22:07:13.238Z,100.00
2024-01-06T22:17:17.587Z,100.00
2024-01-06T22:27:21.012Z,100.00
2024-01-06T22:37:25.310Z,100.00
2024-01-06T22:47:28.153Z,100.00
2024-01-06T22:57:32.396Z,100.00
2024-01-06T23:07:35.284Z,100.00
2024-01-06T23:17:39.663Z,100.00
2024-01-06T23:27:42.521Z,100.00
2024-01-06T23:37:51.369Z,100.00
2024-01-06T23:47:54.259Z,100.00
2024-01-06T23:57:58.655Z,100.00
